Flight Track Log - Related Links

Times and Time Zones

All times are in EDT time to prevent confusion due to time zone crossing. See the EJM826 flight status page for this flight to view local times or setup timezone preferences in your user account.

Time Position Orientation Groundspeed Altitude Reporting Facility
EDT Latitude Longitude Course Direction KTS MPH feet Rate Location/Type
Wed 07:43:14 PM 29.5022 -98.4222 122° Southeast 180 207 3,400  Level Houston Center
Wed 07:44:16 PM 29.4967 -98.3578 96° East 219 252 6,100 2,323 Climbing Houston Center
Wed 07:45:18 PM 29.5239 -98.2742 69° East 266 306 8,200 2,274 Climbing Houston Center
Wed 07:46:20 PM 29.5486 -98.1850 72° East 290 334 10,800 2,516 Climbing Houston Center
Wed 07:47:22 PM 29.5636 -98.0842 80° East 305 351 13,400 2,341 Climbing Houston Center
Wed 07:48:23 PM 29.5461 -97.9867 102° East 313 360 15,600 2,049 Climbing Houston Center
Wed 07:49:25 PM 29.5317 -97.8853 99° East 322 371 17,600 1,887 Climbing Houston Center
Wed 07:50:27 PM 29.5206 -97.7706 96° East 343 395 19,500 1,839 Climbing Houston Center
Wed 07:51:29 PM 29.5081 -97.6617 97° East 346 398 21,400 1,902 Climbing Houston Center
Wed 07:52:30 PM 29.4956 -97.5533 98° East 344 396 23,400 1,951 Climbing Houston Center
Wed 07:53:32 PM 29.4819 -97.4450 98° East 344 396 25,400 1,887 Climbing Houston Center
Wed 07:54:34 PM 29.4686 -97.3372 98° East 343 395 27,300 1,887 Climbing Houston Center
Wed 07:55:36 PM 29.4561 -97.2322 98° East 336 387 29,300 1,707 Climbing Houston Center
Wed 07:56:37 PM 29.4428 -97.1269 98° East 332 382 30,800 293 Climbing Houston Center
Wed 07:57:39 PM 29.4261 -96.9850 98° East 377 434 29,900 -1,452 Descending Houston Center
Wed 07:58:41 PM 29.4092 -96.8642 99° East 441 507 27,800 -2,710 Descending Houston Center
Wed 07:59:43 PM 29.3881 -96.6828 98° East 463 533 24,300 -3,073 Descending Houston Center
Wed 08:00:44 PM 29.3692 -96.5453 99° East 439 505 21,500 -2,732 Descending Houston Center
Wed 08:01:46 PM 29.3531 -96.4150 98° East 418 481 18,700 -2,710 Descending Houston Center
Wed 08:02:48 PM 29.3361 -96.2889 99° East 403 464 15,900 -2,758 Descending Houston Center
Wed 08:03:50 PM 29.3200 -96.1706 99° East 379 436 13,000 -1,935 Descending Houston Center
Wed 08:04:52 PM 29.3072 -96.0622 98° East 346 398 11,900 -634 Descending Houston Center
Wed 08:05:53 PM 29.3622 -95.9756 54° Northeast 309 356 11,700 -976 Descending Houston Center
Wed 08:06:55 PM 29.4236 -95.9111 42° Northeast 301 346 9,900 -1,839 Descending Houston Center
Wed 08:07:57 PM 29.4825 -95.8489 43° Northeast 292 336 7,900 -1,854 Descending Houston Center
Wed 08:08:58 PM 29.5383 -95.7900 43° Northeast 276 318 6,100 -927 Descending Houston Center
Wed 08:10:00 PM 29.5800 -95.7161 57° Northeast 278 320 6,000 -48 Descending Houston Center
Wed 08:11:02 PM 29.6131 -95.6344 65° Northeast 281 323 6,000 -726 Level Houston Center
Wed 08:12:04 PM 29.6444 -95.5533 66° East 279 321 4,500 -1,548 Descending Houston Center
Wed 08:13:06 PM 29.6753 -95.4733 66° East 275 316 2,800 -1,220 Descending Houston Center
Wed 08:14:07 PM 29.7092 -95.3867 66° East 250 288 2,000 -732 Descending Houston Center
Wed 08:15:09 PM 29.6969 -95.3375 106° East 194 223 1,300 -677 Descending Houston Center
Wed 08:16:11 PM 29.6856 -95.2894 105° East 167 192 600 5,177 Descending Houston Center
Wed 08:17:13 PM 29.6525 -95.2850 173° South 136 157 12,000 11,032 Climbing Houston Center
Wed 08:19:00 PM 29.6454 -95.2789 115° Southeast  Level Estimated

Login

Don't have an account? Register now (free) for customized features, flight alerts, and more!